createdAt,value
2022-10-05T00:00:22.894Z,0
2022-10-05T00:01:23.119Z,0
2022-10-05T00:02:22.938Z,0
2022-10-05T00:03:22.858Z,0
2022-10-05T00:04:25.944Z,0
2022-10-05T00:05:23.285Z,0
2022-10-05T00:06:22.885Z,0
2022-10-05T00:07:22.884Z,0
2022-10-05T00:08:22.872Z,0
2022-10-05T00:09:26.060Z,0
2022-10-05T00:10:22.879Z,0
2022-10-05T00:11:22.904Z,0
2022-10-05T00:12:22.886Z,0
2022-10-05T00:13:23.088Z,0
2022-10-05T00:14:22.906Z,0
2022-10-05T00:15:25.895Z,0
2022-10-05T00:16:23.294Z,0
2022-10-05T00:17:22.915Z,0
2022-10-05T00:18:22.911Z,0
2022-10-05T00:19:22.890Z,0
2022-10-05T00:20:25.735Z,0
2022-10-05T00:21:22.920Z,0
2022-10-05T00:22:22.904Z,0
2022-10-05T00:23:22.919Z,0
2022-10-05T00:24:23.155Z,0
2022-10-05T00:25:23.068Z,0
2022-10-05T00:26:25.760Z,0
2022-10-05T00:27:22.918Z,0
2022-10-05T00:28:23.226Z,0
2022-10-05T00:29:23.028Z,0
2022-10-05T00:30:22.947Z,0
2022-10-05T00:31:26.045Z,0
2022-10-05T00:32:22.918Z,0
2022-10-05T00:33:22.948Z,0
2022-10-05T00:34:22.948Z,0
2022-10-05T00:35:22.990Z,0
2022-10-05T00:36:22.956Z,0
2022-10-05T00:37:25.791Z,0
2022-10-05T00:38:22.949Z,0
2022-10-05T00:39:22.927Z,0
2022-10-05T00:40:23.065Z,0
2022-10-05T00:41:23.230Z,0
2022-10-05T00:42:24.008Z,0
2022-10-05T00:43:22.942Z,0
2022-10-05T00:44:22.938Z,0
2022-10-05T00:45:22.931Z,0
2022-10-05T00:46:23.573Z,0
2022-10-05T00:47:25.791Z,0
2022-10-05T00:48:22.939Z,0
2022-10-05T00:49:22.969Z,0
2022-10-05T00:50:22.935Z,0
2022-10-05T00:51:22.944Z,0
2022-10-05T00:52:22.973Z,0
2022-10-05T00:53:25.836Z,0
2022-10-05T00:54:27.485Z,0
2022-10-05T00:55:22.943Z,0
2022-10-05T00:56:22.977Z,0
2022-10-05T00:57:23.141Z,0
2022-10-05T00:58:25.995Z,0
2022-10-05T00:59:22.958Z,0
2022-10-05T01:00:23.108Z,0
2022-10-05T01:01:23.355Z,0
2022-10-05T01:02:26.452Z,0
2022-10-05T01:03:22.967Z,0
2022-10-05T01:04:25.747Z,0
2022-10-05T01:05:22.997Z,0
2022-10-05T01:06:23.065Z,0
2022-10-05T01:07:22.989Z,0
2022-10-05T01:08:22.999Z,0
2022-10-05T01:09:26.066Z,0
2022-10-05T01:10:22.972Z,0
2022-10-05T01:11:22.970Z,0
2022-10-05T01:12:22.993Z,0
2022-10-05T01:13:23.079Z,0
2022-10-05T01:14:23.220Z,0
2022-10-05T01:15:22.988Z,0
2022-10-05T01:16:26.880Z,0
2022-10-05T01:17:23.004Z,0
2022-10-05T01:18:22.988Z,0
2022-10-05T01:19:23.002Z,0
2022-10-05T01:20:26.021Z,0
2022-10-05T01:21:23.008Z,0
2022-10-05T01:22:23.001Z,0
2022-10-05T01:23:23.005Z,0
2022-10-05T01:24:23.053Z,0
2022-10-05T01:25:25.680Z,0
2022-10-05T01:26:23.005Z,0
2022-10-05T01:27:23.001Z,0
2022-10-05T01:28:23.652Z,0
2022-10-05T01:29:23.109Z,0
2022-10-05T01:30:23.022Z,0
2022-10-05T01:31:23.436Z,0
2022-10-05T01:32:23.043Z,0
2022-10-05T01:33:23.004Z,0
2022-10-05T01:34:23.014Z,0
2022-10-05T01:35:23.030Z,0
2022-10-05T01:36:26.103Z,0
2022-10-05T01:37:23.045Z,0
2022-10-05T01:38:23.026Z,0
2022-10-05T01:39:23.011Z,0
2022-10-05T01:40:26.057Z,0
2022-10-05T01:41:25.793Z,0
2022-10-05T01:42:23.094Z,0
2022-10-05T01:43:23.022Z,0
2022-10-05T01:44:23.036Z,0
2022-10-05T01:45:23.108Z,0
2022-10-05T01:46:23.525Z,0
2022-10-05T01:47:26.079Z,0
2022-10-05T01:48:23.034Z,0
2022-10-05T01:49:23.032Z,0
2022-10-05T01:50:23.038Z,0
2022-10-05T01:51:23.069Z,0
2022-10-05T01:52:26.320Z,0
2022-10-05T01:53:23.042Z,0
2022-10-05T01:54:23.041Z,0
2022-10-05T01:55:23.047Z,0
2022-10-05T01:56:23.061Z,0
2022-10-05T01:57:23.061Z,0
2022-10-05T01:58:25.905Z,0
2022-10-05T01:59:23.065Z,0
2022-10-05T02:00:23.053Z,0
2022-10-05T02:01:23.642Z,0
2022-10-05T02:02:23.673Z,0
2022-10-05T02:03:26.092Z,0
2022-10-05T02:05:08.424Z,0
2022-10-05T02:06:23.068Z,0
2022-10-05T02:07:23.086Z,0
2022-10-05T02:08:23.101Z,0
2022-10-05T02:09:26.170Z,0
2022-10-05T02:10:23.065Z,0
2022-10-05T02:11:23.075Z,0
2022-10-05T02:12:23.088Z,0
2022-10-05T02:13:23.095Z,0
2022-10-05T02:14:25.881Z,0
2022-10-05T02:15:23.084Z,0
2022-10-05T02:16:23.580Z,0
2022-10-05T02:17:23.341Z,0
2022-10-05T02:18:22.924Z,0
2022-10-05T02:19:23.067Z,0
2022-10-05T02:20:25.902Z,0
2022-10-05T02:21:23.080Z,0
2022-10-05T02:22:23.118Z,0
2022-10-05T02:23:23.179Z,0
2022-10-05T02:24:23.116Z,0
2022-10-05T02:25:24.152Z,0
2022-10-05T02:26:23.087Z,0
2022-10-05T02:27:23.103Z,0
2022-10-05T02:28:23.689Z,0
2022-10-05T02:29:23.237Z,0
2022-10-05T02:30:25.815Z,0
2022-10-05T02:31:26.306Z,0
2022-10-05T02:32:23.145Z,0
2022-10-05T02:33:23.235Z,0
2022-10-05T02:34:23.101Z,0
2022-10-05T02:35:23.110Z,0
2022-10-05T02:36:25.888Z,0
2022-10-05T02:37:23.124Z,0
2022-10-05T02:38:23.102Z,0
2022-10-05T02:39:23.123Z,0
2022-10-05T02:40:23.262Z,0
2022-10-05T02:41:23.110Z,0
2022-10-05T02:42:26.114Z,0
2022-10-05T02:43:23.122Z,0
2022-10-05T02:44:23.129Z,0
2022-10-05T02:45:23.110Z,0
2022-10-05T02:46:23.688Z,0
2022-10-05T02:47:26.205Z,0
2022-10-05T02:48:23.117Z,0
2022-10-05T02:49:23.218Z,0
2022-10-05T02:50:23.180Z,0
2022-10-05T02:51:23.130Z,0
2022-10-05T02:52:23.157Z,0
2022-10-05T02:53:25.997Z,0
2022-10-05T02:54:23.127Z,0
2022-10-05T02:55:23.125Z,0
2022-10-05T02:56:23.168Z,0
2022-10-05T02:57:23.149Z,0
2022-10-05T02:58:26.032Z,0
2022-10-05T02:59:23.130Z,0
2022-10-05T03:00:23.146Z,0
2022-10-05T03:01:23.510Z,0
2022-10-05T03:02:23.641Z,0
2022-10-05T03:03:23.152Z,0
2022-10-05T03:04:26.214Z,0
2022-10-05T03:05:23.226Z,0
2022-10-05T03:06:23.176Z,0
2022-10-05T03:07:23.314Z,0
2022-10-05T03:08:23.149Z,0
2022-10-05T03:09:25.915Z,0
2022-10-05T03:10:23.146Z,0
2022-10-05T03:11:23.165Z,0
2022-10-05T03:12:23.223Z,0
2022-10-05T03:13:23.166Z,0
2022-10-05T03:14:23.178Z,0
2022-10-05T03:15:23.182Z,0
2022-10-05T03:16:23.877Z,0
2022-10-05T03:17:23.174Z,0
2022-10-05T03:18:25.405Z,0
2022-10-05T03:19:23.175Z,0
2022-10-05T03:20:26.006Z,0
2022-10-05T03:21:23.191Z,0
2022-10-05T03:22:23.198Z,0
2022-10-05T03:23:23.178Z,0
2022-10-05T03:24:23.179Z,0
2022-10-05T03:25:26.024Z,0
2022-10-05T03:26:23.178Z,0
2022-10-05T03:27:23.212Z,0
2022-10-05T03:28:23.626Z,0
2022-10-05T03:29:23.235Z,0
2022-10-05T03:30:23.180Z,0
2022-10-05T03:31:23.598Z,0
2022-10-05T03:32:23.232Z,0
2022-10-05T03:33:23.185Z,0
2022-10-05T03:34:23.271Z,0
2022-10-05T03:35:23.248Z,0
2022-10-05T03:36:26.424Z,0
2022-10-05T03:37:23.300Z,0
2022-10-05T03:38:23.233Z,0
2022-10-05T03:39:23.216Z,0
2022-10-05T03:40:23.385Z,0
2022-10-05T03:41:23.233Z,0
2022-10-05T03:42:23.212Z,0
2022-10-05T03:43:23.252Z,0
2022-10-05T03:44:23.224Z,0
2022-10-05T03:45:23.209Z,0
2022-10-05T03:46:23.603Z,0
2022-10-05T03:47:27.155Z,0
2022-10-05T03:48:23.209Z,0
2022-10-05T03:49:23.335Z,0
2022-10-05T03:50:23.206Z,0
2022-10-05T03:51:23.253Z,0
2022-10-05T03:52:26.154Z,0
2022-10-05T03:53:23.261Z,0
2022-10-05T03:54:23.200Z,0
2022-10-05T03:55:23.235Z,0
2022-10-05T03:56:23.238Z,0
2022-10-05T03:57:23.229Z,0
2022-10-05T03:58:26.134Z,0
2022-10-05T03:59:23.250Z,0
2022-10-05T04:00:23.271Z,0
2022-10-05T04:01:23.633Z,0
2022-10-05T04:02:23.659Z,0
2022-10-05T04:03:26.063Z,0
2022-10-05T04:04:23.238Z,0
2022-10-05T04:05:23.242Z,0
2022-10-05T04:06:23.233Z,0
2022-10-05T04:07:25.760Z,0
2022-10-05T04:08:25.355Z,0
2022-10-05T04:09:28.837Z,0
2022-10-05T04:10:23.260Z,0
2022-10-05T04:11:23.129Z,0
2022-10-05T04:12:23.241Z,0
2022-10-05T04:13:23.267Z,0
2022-10-05T04:14:26.309Z,0
2022-10-05T04:15:27.939Z,0
2022-10-05T04:16:23.686Z,0
2022-10-05T04:17:23.320Z,0
2022-10-05T04:18:23.278Z,0
2022-10-05T04:19:26.536Z,0
2022-10-05T04:20:23.295Z,0
2022-10-05T04:21:28.715Z,0
2022-10-05T04:22:23.278Z,0
2022-10-05T04:23:23.298Z,0
2022-10-05T04:24:23.362Z,0
2022-10-05T04:25:26.026Z,0
2022-10-05T04:26:23.283Z,0
2022-10-05T04:27:23.303Z,0
2022-10-05T04:28:26.055Z,0
2022-10-05T04:29:23.326Z,0
2022-10-05T04:30:26.415Z,0
2022-10-05T04:31:23.499Z,0
2022-10-05T04:32:23.262Z,0
2022-10-05T04:33:26.149Z,0
2022-10-05T04:34:23.337Z,0
2022-10-05T04:35:23.280Z,0
2022-10-05T04:36:25.883Z,0
2022-10-05T04:37:23.117Z,0
2022-10-05T04:38:23.293Z,0
2022-10-05T04:39:23.280Z,0
2022-10-05T04:40:23.524Z,0
2022-10-05T04:41:26.298Z,0
2022-10-05T04:42:23.303Z,0
2022-10-05T04:43:23.317Z,0
2022-10-05T04:44:23.301Z,0
2022-10-05T04:45:23.323Z,0
2022-10-05T04:46:23.705Z,0
2022-10-05T04:47:26.146Z,0
2022-10-05T04:48:23.330Z,0
2022-10-05T04:49:23.302Z,0
2022-10-05T04:50:23.173Z,0
2022-10-05T04:51:23.336Z,0
2022-10-05T04:52:24.394Z,0
2022-10-05T04:53:23.151Z,0
2022-10-05T04:54:23.308Z,0
2022-10-05T04:55:23.325Z,0
2022-10-05T04:56:23.645Z,0
2022-10-05T04:57:23.336Z,0
2022-10-05T04:58:26.234Z,0
2022-10-05T04:59:23.338Z,0
2022-10-05T05:00:23.334Z,0
2022-10-05T05:01:23.542Z,0
2022-10-05T05:02:23.167Z,0
2022-10-05T05:03:25.146Z,0
2022-10-05T05:04:23.305Z,0
2022-10-05T05:05:23.344Z,0
2022-10-05T05:06:27.564Z,0
2022-10-05T05:07:23.421Z,0
2022-10-05T05:08:23.350Z,0
2022-10-05T05:09:26.114Z,0
2022-10-05T05:10:23.325Z,0
2022-10-05T05:11:31.346Z,0
2022-10-05T05:12:23.360Z,0
2022-10-05T05:13:23.424Z,0
2022-10-05T05:14:26.136Z,0
2022-10-05T05:15:23.330Z,0
2022-10-05T05:16:23.903Z,0
2022-10-05T05:17:23.341Z,0
2022-10-05T05:18:23.365Z,0
2022-10-05T05:19:23.379Z,0
2022-10-05T05:20:24.432Z,0
2022-10-05T05:21:23.364Z,0
2022-10-05T05:22:23.364Z,0
2022-10-05T05:23:23.403Z,0
2022-10-05T05:24:23.350Z,0
2022-10-05T05:25:26.374Z,0
2022-10-05T05:26:23.356Z,0
2022-10-05T05:27:23.414Z,0
2022-10-05T05:28:23.486Z,0
2022-10-05T05:29:23.407Z,0
2022-10-05T05:30:23.355Z,0
2022-10-05T05:31:26.816Z,0
2022-10-05T05:32:23.373Z,0
2022-10-05T05:33:23.897Z,0
2022-10-05T05:34:23.442Z,0
2022-10-05T05:35:23.394Z,0
2022-10-05T05:36:28.976Z,0
2022-10-05T05:37:23.197Z,0
2022-10-05T05:38:23.381Z,0
2022-10-05T05:39:23.356Z,0
2022-10-05T05:40:23.417Z,0
2022-10-05T05:41:26.302Z,0
2022-10-05T05:42:23.406Z,0
2022-10-05T05:43:23.393Z,0
2022-10-05T05:44:23.425Z,0
2022-10-05T05:45:23.422Z,0
2022-10-05T05:46:51.476Z,0
2022-10-05T05:47:24.998Z,0
2022-10-05T05:48:23.398Z,0
2022-10-05T05:49:23.399Z,0
2022-10-05T05:50:23.249Z,0
2022-10-05T05:51:23.535Z,0
2022-10-05T05:52:26.282Z,0
2022-10-05T05:53:23.471Z,0
2022-10-05T05:54:23.411Z,5
2022-10-05T05:55:26.503Z,5
2022-10-05T05:56:23.562Z,5
2022-10-05T05:57:23.400Z,5
2022-10-05T05:58:23.425Z,5
2022-10-05T05:59:23.644Z,5
2022-10-05T06:00:23.440Z,5
2022-10-05T06:01:47.198Z,5
2022-10-05T06:02:23.980Z,5
2022-10-05T06:03:25.211Z,5
2022-10-05T06:04:23.441Z,5
2022-10-05T06:05:23.447Z,5
2022-10-05T06:06:23.422Z,5
2022-10-05T06:07:26.822Z,5
2022-10-05T06:08:23.447Z,10
2022-10-05T06:09:23.434Z,10
2022-10-05T06:10:23.448Z,15
2022-10-05T06:11:23.426Z,20
2022-10-05T06:12:26.512Z,15
2022-10-05T06:13:23.437Z,15
2022-10-05T06:14:26.498Z,10
2022-10-05T06:15:23.495Z,10
2022-10-05T06:16:23.789Z,10
2022-10-05T06:17:23.432Z,10
2022-10-05T06:18:26.933Z,15
2022-10-05T06:19:26.635Z,15
2022-10-05T06:20:23.430Z,15
2022-10-05T06:21:23.430Z,20
2022-10-05T06:22:23.446Z,20
2022-10-05T06:23:23.469Z,20
2022-10-05T06:24:23.489Z,20
2022-10-05T06:25:26.460Z,25
2022-10-05T06:26:23.480Z,35
2022-10-05T06:27:23.440Z,40
2022-10-05T06:28:23.797Z,40
2022-10-05T06:29:23.538Z,40
2022-10-05T06:30:26.299Z,30
2022-10-05T06:31:23.690Z,20
2022-10-05T06:32:23.531Z,20
2022-10-05T06:33:23.461Z,20
2022-10-05T06:34:25.455Z,20
2022-10-05T06:35:24.582Z,20
2022-10-05T06:36:23.439Z,20
2022-10-05T06:37:23.460Z,20
2022-10-05T06:38:23.464Z,20
2022-10-05T06:39:23.575Z,25
2022-10-05T06:40:23.485Z,25
2022-10-05T06:41:23.700Z,20
2022-10-05T06:42:23.486Z,20
2022-10-05T06:43:23.483Z,20
2022-10-05T06:44:23.497Z,20
2022-10-05T06:45:24.678Z,20
2022-10-05T06:46:27.263Z,20
2022-10-05T06:47:23.499Z,20
2022-10-05T06:48:23.495Z,20
2022-10-05T06:49:23.501Z,20
2022-10-05T06:50:23.467Z,20
2022-10-05T06:51:23.476Z,20
2022-10-05T06:52:26.404Z,20
2022-10-05T06:53:23.478Z,20
2022-10-05T06:54:23.504Z,30
2022-10-05T06:55:23.694Z,30
2022-10-05T06:56:23.640Z,35
2022-10-05T06:57:26.510Z,45
2022-10-05T06:58:23.498Z,50
2022-10-05T06:59:23.544Z,35
2022-10-05T07:00:23.567Z,35
2022-10-05T07:01:24.064Z,40
2022-10-05T07:02:24.001Z,35
2022-10-05T07:03:26.322Z,35
2022-10-05T07:04:23.561Z,30
2022-10-05T07:05:26.794Z,35
2022-10-05T07:06:24.662Z,35
2022-10-05T07:07:23.519Z,35
2022-10-05T07:08:26.347Z,30
2022-10-05T07:09:24.298Z,30
2022-10-05T07:10:23.514Z,30
2022-10-05T07:11:23.639Z,35
2022-10-05T07:12:23.517Z,35
2022-10-05T07:13:23.527Z,35
2022-10-05T07:14:26.549Z,35
2022-10-05T07:15:23.510Z,40
2022-10-05T07:16:23.846Z,50
2022-10-05T07:17:23.703Z,55
2022-10-05T07:18:23.691Z,50
2022-10-05T07:19:24.696Z,50
2022-10-05T07:20:23.547Z,50
2022-10-05T07:21:23.519Z,55
2022-10-05T07:22:23.543Z,50
2022-10-05T07:23:23.609Z,55
2022-10-05T07:24:23.565Z,55
2022-10-05T07:25:26.318Z,70
2022-10-05T07:26:23.533Z,75
2022-10-05T07:27:23.579Z,80
2022-10-05T07:28:23.979Z,80
2022-10-05T07:29:23.586Z,80
2022-10-05T07:30:26.654Z,70
2022-10-05T07:31:24.087Z,70
2022-10-05T07:32:23.538Z,75
2022-10-05T07:33:23.554Z,80
2022-10-05T07:34:24.146Z,75
2022-10-05T07:35:23.613Z,70
2022-10-05T07:36:26.488Z,60
2022-10-05T07:37:23.546Z,70
2022-10-05T07:38:23.642Z,70
2022-10-05T07:39:36.821Z,70
2022-10-05T07:40:23.608Z,75
2022-10-05T07:41:26.616Z,75
2022-10-05T07:42:23.565Z,80
2022-10-05T07:43:23.574Z,70
2022-10-05T07:44:23.583Z,65
2022-10-05T07:45:23.747Z,70
2022-10-05T07:46:24.019Z,70
2022-10-05T07:47:24.622Z,75
2022-10-05T07:48:23.631Z,70
2022-10-05T07:49:23.583Z,70
2022-10-05T07:50:23.842Z,70
2022-10-05T07:51:23.578Z,70
2022-10-05T07:52:29.087Z,75
2022-10-05T07:53:23.580Z,55
2022-10-05T07:54:23.620Z,70
2022-10-05T07:55:23.642Z,75
2022-10-05T07:56:23.582Z,75
2022-10-05T07:57:23.586Z,65
2022-10-05T07:58:26.355Z,85
2022-10-05T07:59:23.640Z,85
2022-10-05T08:00:23.846Z,80
2022-10-05T08:01:23.771Z,75
2022-10-05T08:02:24.629Z,65
2022-10-05T08:03:26.903Z,65
2022-10-05T08:04:26.620Z,60
2022-10-05T08:05:23.608Z,55
2022-10-05T08:06:23.727Z,55
2022-10-05T08:08:27.424Z,65
2022-10-05T08:09:23.695Z,65
2022-10-05T08:10:23.707Z,60
2022-10-05T08:11:23.631Z,60
2022-10-05T08:12:23.722Z,60
2022-10-05T08:13:23.631Z,65
2022-10-05T08:14:26.386Z,55
2022-10-05T08:15:23.697Z,60
2022-10-05T08:16:25.281Z,55
2022-10-05T08:17:28.852Z,65
2022-10-05T08:18:23.774Z,65
2022-10-05T08:19:26.672Z,75
2022-10-05T08:20:23.728Z,75
2022-10-05T08:21:23.634Z,75
2022-10-05T08:22:23.923Z,75
2022-10-05T08:23:23.628Z,75
2022-10-05T08:24:23.657Z,70
2022-10-05T08:25:23.672Z,70
2022-10-05T08:26:23.647Z,70
2022-10-05T08:27:23.662Z,70
2022-10-05T08:28:24.019Z,70
2022-10-05T08:29:23.642Z,70
2022-10-05T08:30:26.678Z,75
2022-10-05T08:31:24.167Z,75
2022-10-05T08:32:23.648Z,75
2022-10-05T08:33:23.659Z,75
2022-10-05T08:34:23.650Z,65
2022-10-05T08:35:23.676Z,75
2022-10-05T08:36:23.691Z,75
2022-10-05T08:37:23.675Z,65
2022-10-05T08:38:23.782Z,70
2022-10-05T08:39:23.705Z,70
2022-10-05T08:40:23.730Z,70
2022-10-05T08:41:26.473Z,80
2022-10-05T08:42:23.658Z,75
2022-10-05T08:43:23.735Z,75
2022-10-05T08:44:23.664Z,75
2022-10-05T08:45:23.717Z,75
2022-10-05T08:46:26.997Z,80
2022-10-05T08:47:23.706Z,75
2022-10-05T08:48:23.682Z,75
2022-10-05T08:49:23.688Z,75
2022-10-05T08:50:23.807Z,75
2022-10-05T08:51:23.677Z,75
2022-10-05T08:52:23.683Z,80
2022-10-05T08:53:23.676Z,80
2022-10-05T08:54:23.800Z,80
2022-10-05T08:55:23.718Z,80
2022-10-05T08:56:33.677Z,80
2022-10-05T08:57:26.761Z,80
2022-10-05T08:58:24.039Z,80
2022-10-05T08:59:23.690Z,80
2022-10-05T09:00:23.771Z,85
2022-10-05T09:01:24.176Z,90
2022-10-05T09:02:27.146Z,85
2022-10-05T09:03:23.778Z,85
2022-10-05T09:04:23.703Z,85
2022-10-05T09:05:23.714Z,90
2022-10-05T09:06:23.693Z,90
2022-10-05T09:07:23.709Z,90
2022-10-05T09:08:26.538Z,90
2022-10-05T09:09:23.703Z,90
2022-10-05T09:10:23.889Z,95
2022-10-05T09:11:23.720Z,95
2022-10-05T09:12:23.741Z,85
2022-10-05T09:13:26.562Z,95
2022-10-05T09:14:23.745Z,105
2022-10-05T09:15:34.878Z,100
2022-10-05T09:16:24.171Z,100
2022-10-05T09:17:23.722Z,90
2022-10-05T09:18:23.743Z,85
2022-10-05T09:19:26.524Z,85
2022-10-05T09:20:23.896Z,75
2022-10-05T09:21:23.760Z,70
2022-10-05T09:22:23.770Z,65
2022-10-05T09:23:23.768Z,60
2022-10-05T09:24:26.620Z,60
2022-10-05T09:25:23.776Z,60
2022-10-05T09:26:23.901Z,60
2022-10-05T09:27:23.764Z,60
2022-10-05T09:28:24.302Z,60
2022-10-05T09:29:23.753Z,55
2022-10-05T09:30:26.665Z,60
2022-10-05T09:31:24.206Z,60
2022-10-05T09:32:25.746Z,60
2022-10-05T09:33:23.758Z,55
2022-10-05T09:34:23.894Z,60
2022-10-05T09:35:26.790Z,60
2022-10-05T09:36:23.841Z,65
2022-10-05T09:37:23.783Z,60
2022-10-05T09:38:23.780Z,70
2022-10-05T09:39:23.802Z,75
2022-10-05T09:40:23.992Z,80
2022-10-05T09:41:26.892Z,75
2022-10-05T09:42:23.854Z,80
2022-10-05T09:43:24.131Z,70
2022-10-05T09:44:23.850Z,70
2022-10-05T09:45:30.151Z,65
2022-10-05T09:46:27.202Z,70
2022-10-05T09:47:23.791Z,70
2022-10-05T09:48:23.789Z,65
2022-10-05T09:49:23.901Z,70
2022-10-05T09:50:23.978Z,70
2022-10-05T09:51:23.805Z,70
2022-10-05T09:52:30.858Z,70
2022-10-05T09:53:23.860Z,70
2022-10-05T09:54:23.805Z,65
2022-10-05T09:55:23.830Z,65
2022-10-05T09:56:24.111Z,65
2022-10-05T09:57:26.801Z,65
2022-10-05T09:58:23.811Z,65
2022-10-05T09:59:23.794Z,60
2022-10-05T10:00:24.133Z,60
2022-10-05T10:01:42.288Z,60
2022-10-05T10:02:24.693Z,60
2022-10-05T10:03:26.915Z,65
2022-10-05T10:04:23.810Z,70
2022-10-05T10:05:23.841Z,70
2022-10-05T10:06:23.834Z,65
2022-10-05T10:07:23.827Z,60
2022-10-05T10:08:26.561Z,65
2022-10-05T10:09:23.823Z,65
2022-10-05T10:10:23.911Z,65
2022-10-05T10:11:23.816Z,65
2022-10-05T10:12:23.845Z,65
2022-10-05T10:13:23.953Z,70
2022-10-05T10:14:26.737Z,70
2022-10-05T10:15:24.042Z,65
2022-10-05T10:16:24.452Z,60
2022-10-05T10:17:23.848Z,60
2022-10-05T10:18:23.843Z,60
2022-10-05T10:19:26.838Z,70
2022-10-05T10:20:24.013Z,65
2022-10-05T10:21:23.839Z,65
2022-10-05T10:22:23.862Z,65
2022-10-05T10:23:23.856Z,60
2022-10-05T10:24:23.873Z,60
2022-10-05T10:25:26.735Z,60
2022-10-05T10:26:23.842Z,60
2022-10-05T10:27:23.845Z,60
2022-10-05T10:28:24.279Z,65
2022-10-05T10:29:24.333Z,70
2022-10-05T10:30:32.010Z,75
2022-10-05T10:31:24.191Z,75
2022-10-05T10:32:23.978Z,75
2022-10-05T10:33:24.922Z,75
2022-10-05T10:34:23.864Z,70
2022-10-05T10:35:24.506Z,70
2022-10-05T10:36:23.876Z,70
2022-10-05T10:37:23.871Z,70
2022-10-05T10:38:23.918Z,70
2022-10-05T10:39:23.962Z,65
2022-10-05T10:40:23.934Z,60
2022-10-05T10:41:26.986Z,60
2022-10-05T10:42:29.861Z,60
2022-10-05T10:43:23.880Z,60
2022-10-05T10:44:23.910Z,60
2022-10-05T10:45:24.084Z,65
2022-10-05T10:46:27.525Z,65
2022-10-05T10:47:28.828Z,60
2022-10-05T10:48:24.067Z,55
2022-10-05T10:49:23.963Z,55
2022-10-05T10:50:23.929Z,55
2022-10-05T10:51:23.900Z,55
2022-10-05T10:52:23.897Z,55
2022-10-05T10:53:23.932Z,55
2022-10-05T10:54:23.921Z,50
2022-10-05T10:55:23.953Z,50
2022-10-05T10:56:24.037Z,50
2022-10-05T10:57:27.104Z,50
2022-10-05T10:58:25.669Z,50
2022-10-05T10:59:25.450Z,50
2022-10-05T11:00:24.044Z,50
2022-10-05T11:01:24.471Z,50
2022-10-05T11:02:24.464Z,55
2022-10-05T11:03:24.059Z,60
2022-10-05T11:04:23.959Z,60
2022-10-05T11:05:23.943Z,55
2022-10-05T11:06:23.980Z,55
2022-10-05T11:07:23.942Z,55
2022-10-05T11:08:26.751Z,55
2022-10-05T11:09:23.981Z,55
2022-10-05T11:10:24.082Z,55
2022-10-05T11:11:23.983Z,55
2022-10-05T11:12:24.130Z,55
2022-10-05T11:13:27.109Z,50
2022-10-05T11:14:23.949Z,50
2022-10-05T11:15:23.973Z,50
2022-10-05T11:16:28.655Z,55
2022-10-05T11:17:23.959Z,55
2022-10-05T11:18:23.945Z,50
2022-10-05T11:19:35.000Z,50
2022-10-05T11:20:24.196Z,55
2022-10-05T11:21:23.983Z,55
2022-10-05T11:22:23.946Z,55
2022-10-05T11:23:23.961Z,55
2022-10-05T11:24:26.714Z,50
2022-10-05T11:25:23.970Z,50
2022-10-05T11:26:24.008Z,45
2022-10-05T11:27:24.200Z,45
2022-10-05T11:28:24.377Z,45
2022-10-05T11:29:27.029Z,45
2022-10-05T11:30:26.960Z,45
2022-10-05T11:31:24.278Z,40
2022-10-05T11:32:24.082Z,45
2022-10-05T11:33:23.975Z,40
2022-10-05T11:34:23.977Z,40
2022-10-05T11:35:27.035Z,40
2022-10-05T11:36:24.000Z,40
2022-10-05T11:37:23.990Z,45
2022-10-05T11:38:23.974Z,45
2022-10-05T11:39:24.012Z,45
2022-10-05T11:40:25.744Z,45
2022-10-05T11:41:24.046Z,40
2022-10-05T11:42:24.070Z,40
2022-10-05T11:43:23.984Z,40
2022-10-05T11:44:23.995Z,40
2022-10-05T11:45:27.104Z,40
2022-10-05T11:46:28.414Z,40
2022-10-05T11:47:24.209Z,40
2022-10-05T11:48:24.107Z,40
2022-10-05T11:49:24.070Z,40
2022-10-05T11:50:24.043Z,40
2022-10-05T11:51:33.479Z,40
2022-10-05T11:52:24.021Z,40
2022-10-05T11:53:23.858Z,40
2022-10-05T11:54:24.012Z,40
2022-10-05T11:55:24.112Z,40
2022-10-05T11:56:24.364Z,40
2022-10-05T11:57:27.022Z,40
2022-10-05T11:58:24.050Z,40
2022-10-05T11:59:24.021Z,40
2022-10-05T12:00:24.045Z,40
2022-10-05T12:01:24.050Z,40
2022-10-05T12:02:27.094Z,40
2022-10-05T12:03:24.737Z,40
2022-10-05T12:04:24.245Z,40
2022-10-05T12:05:24.055Z,40
2022-10-05T12:06:24.055Z,40
2022-10-05T12:07:24.087Z,40
2022-10-05T12:08:27.064Z,40
2022-10-05T12:09:24.083Z,40
2022-10-05T12:10:24.295Z,45
2022-10-05T12:11:24.062Z,45
2022-10-05T12:12:24.043Z,45
2022-10-05T12:13:27.202Z,50
2022-10-05T12:14:24.083Z,50
2022-10-05T12:15:23.924Z,50
2022-10-05T12:16:24.389Z,50
2022-10-05T12:17:24.230Z,50
2022-10-05T12:18:24.064Z,50
2022-10-05T12:19:27.098Z,50
2022-10-05T12:20:24.415Z,50
2022-10-05T12:21:24.052Z,50
2022-10-05T12:22:24.134Z,50
2022-10-05T12:23:24.127Z,45
2022-10-05T12:24:31.399Z,45
2022-10-05T12:25:24.819Z,45
2022-10-05T12:26:24.098Z,40
2022-10-05T12:27:24.092Z,40
2022-10-05T12:28:24.433Z,40
2022-10-05T12:29:24.348Z,40
2022-10-05T12:30:26.980Z,40
2022-10-05T12:31:24.547Z,35
2022-10-05T12:32:24.077Z,35
2022-10-05T12:33:24.112Z,40
2022-10-05T12:34:24.086Z,40
2022-10-05T12:35:53.722Z,40
2022-10-05T12:36:24.781Z,40
2022-10-05T12:37:24.115Z,40
2022-10-05T12:38:24.084Z,40
2022-10-05T12:39:24.257Z,40
2022-10-05T12:40:24.134Z,40
2022-10-05T12:41:27.143Z,40
2022-10-05T12:42:24.118Z,35
2022-10-05T12:43:24.146Z,35
2022-10-05T12:44:24.348Z,35
2022-10-05T12:45:24.241Z,35
2022-10-05T12:46:27.182Z,35
2022-10-05T12:47:24.145Z,35
2022-10-05T12:48:24.135Z,35
2022-10-05T12:49:24.186Z,30
2022-10-05T12:50:24.354Z,30
2022-10-05T12:51:24.045Z,30
2022-10-05T12:52:25.226Z,30
2022-10-05T12:53:24.126Z,30
2022-10-05T12:54:24.116Z,30
2022-10-05T12:55:24.204Z,35
2022-10-05T12:56:24.263Z,35
2022-10-05T12:57:26.905Z,35
2022-10-05T12:58:24.368Z,35
2022-10-05T12:59:24.154Z,35
2022-10-05T13:00:30.015Z,35
2022-10-05T13:01:24.302Z,35
2022-10-05T13:02:24.393Z,35
2022-10-05T13:03:24.210Z,35
2022-10-05T13:04:24.145Z,35
2022-10-05T13:05:24.175Z,35
2022-10-05T13:06:24.617Z,35
2022-10-05T13:07:24.223Z,35
2022-10-05T13:08:26.791Z,35
2022-10-05T13:09:24.147Z,35
2022-10-05T13:10:24.228Z,35
2022-10-05T13:11:24.431Z,30
2022-10-05T13:12:24.151Z,30
2022-10-05T13:13:24.210Z,30
2022-10-05T13:14:24.178Z,30
2022-10-05T13:15:24.177Z,35
2022-10-05T13:16:25.257Z,35
2022-10-05T13:17:24.659Z,35
2022-10-05T13:18:25.064Z,35
2022-10-05T13:19:24.178Z,35
2022-10-05T13:20:24.279Z,35
2022-10-05T13:21:24.314Z,35
2022-10-05T13:22:24.332Z,35
2022-10-05T13:23:27.320Z,35
2022-10-05T13:24:27.341Z,30
2022-10-05T13:25:27.510Z,30
2022-10-05T13:26:24.805Z,30
2022-10-05T13:27:24.264Z,30
2022-10-05T13:28:24.473Z,30
2022-10-05T13:29:26.977Z,30
2022-10-05T13:30:24.192Z,30
2022-10-05T13:31:24.751Z,25
2022-10-05T13:32:24.207Z,25
2022-10-05T13:33:24.295Z,25
2022-10-05T13:34:24.476Z,25
2022-10-05T13:35:27.283Z,25
2022-10-05T13:36:24.837Z,25
2022-10-05T13:37:24.205Z,25
2022-10-05T13:38:24.215Z,25
2022-10-05T13:39:24.398Z,25
2022-10-05T13:40:27.219Z,25
2022-10-05T13:41:24.240Z,25
2022-10-05T13:42:24.242Z,20
2022-10-05T13:43:24.387Z,20
2022-10-05T13:44:24.276Z,20
2022-10-05T13:45:24.574Z,20
2022-10-05T13:46:34.721Z,20
2022-10-05T13:47:24.281Z,20
2022-10-05T13:48:24.261Z,20
2022-10-05T13:49:24.242Z,25
2022-10-05T13:50:24.246Z,25
2022-10-05T13:51:27.783Z,25
2022-10-05T13:52:24.232Z,20
2022-10-05T13:53:28.929Z,20
2022-10-05T13:54:24.233Z,20
2022-10-05T13:55:24.311Z,25
2022-10-05T13:56:25.668Z,25
2022-10-05T13:57:27.026Z,25
2022-10-05T13:58:24.251Z,25
2022-10-05T13:59:24.264Z,25
2022-10-05T14:00:31.075Z,25
2022-10-05T14:01:24.977Z,25
2022-10-05T14:02:27.542Z,25
2022-10-05T14:03:24.611Z,25
2022-10-05T14:04:24.361Z,25
2022-10-05T14:05:24.261Z,25
2022-10-05T14:06:25.357Z,25
2022-10-05T14:07:27.300Z,25
2022-10-05T14:08:24.300Z,25
2022-10-05T14:09:27.399Z,25
2022-10-05T14:10:24.332Z,25
2022-10-05T14:11:25.468Z,25
2022-10-05T14:12:24.288Z,25
2022-10-05T14:13:27.079Z,25
2022-10-05T14:14:24.272Z,25
2022-10-05T14:15:24.258Z,25
2022-10-05T14:16:24.498Z,25
2022-10-05T14:17:26.095Z,25
2022-10-05T14:18:27.095Z,25
2022-10-05T14:19:24.319Z,25
2022-10-05T14:20:24.371Z,25
2022-10-05T14:21:24.993Z,25
2022-10-05T14:22:27.127Z,25
2022-10-05T14:23:31.855Z,25
2022-10-05T14:24:51.797Z,25
2022-10-05T14:25:24.309Z,25
2022-10-05T14:26:24.312Z,25
2022-10-05T14:27:24.399Z,25
2022-10-05T14:28:24.946Z,25
2022-10-05T14:29:27.304Z,25
2022-10-05T14:30:24.545Z,25